createdAt,value
2019-04-14T00:04:46.982Z,7.08
2019-04-14T00:09:49.836Z,7.01
2019-04-14T00:14:53.940Z,7.00
2019-04-14T00:19:56.678Z,6.95
2019-04-14T00:24:59.715Z,6.94
2019-04-14T00:30:03.350Z,6.91
2019-04-14T00:35:12.468Z,6.83
2019-04-14T00:40:19.958Z,6.80
2019-04-14T00:45:37.028Z,6.80
2019-04-14T00:50:31.926Z,6.72
2019-04-14T00:55:34.107Z,6.68
2019-04-14T01:00:36.523Z,6.55
2019-04-14T01:05:41.633Z,6.54
2019-04-14T01:10:43.712Z,6.58
2019-04-14T01:15:57.336Z,6.55
2019-04-14T01:20:51.822Z,6.62
2019-04-14T01:25:58.386Z,6.66
2019-04-14T01:31:01.172Z,6.65
2019-04-14T01:36:03.971Z,6.60
2019-04-14T01:41:06.466Z,6.58
2019-04-14T01:46:15.992Z,6.59
2019-04-14T01:51:38.081Z,6.57
2019-04-14T01:56:51.686Z,6.59
2019-04-14T02:01:54.493Z,6.58
2019-04-14T02:06:57.380Z,6.54
2019-04-14T02:12:01.702Z,6.53
2019-04-14T02:17:06.427Z,6.57
2019-04-14T02:22:07.722Z,6.62
2019-04-14T02:27:09.894Z,6.57
2019-04-14T02:37:49.056Z,6.78
2019-04-14T02:42:52.234Z,6.79
2019-04-14T02:52:58.551Z,6.77
2019-04-14T02:57:52.110Z,6.81
2019-04-14T03:03:16.030Z,6.76
2019-04-14T03:08:08.249Z,6.79
2019-04-14T03:13:15.090Z,6.78
2019-04-14T03:23:56.355Z,6.82
2019-04-14T03:28:56.670Z,6.85
2019-04-14T03:34:30.222Z,6.80
2019-04-14T03:39:15.586Z,6.89
2019-04-14T03:44:23.450Z,6.95
2019-04-14T03:49:27.824Z,6.94
2019-04-14T03:54:15.603Z,6.96
2019-04-14T03:59:01.990Z,6.93
2019-04-14T04:04:05.266Z,6.87
2019-04-14T04:09:21.434Z,6.92
2019-04-14T04:14:24.603Z,6.93
2019-04-14T04:19:55.673Z,6.90
2019-04-14T04:25:09.440Z,6.91
2019-04-14T04:30:20.849Z,6.90
2019-04-14T04:35:30.363Z,6.92
2019-04-14T04:40:33.319Z,6.95
2019-04-14T04:45:36.527Z,6.95
2019-04-14T04:50:38.912Z,7.02
2019-04-14T04:55:41.680Z,7.06
2019-04-14T05:00:46.945Z,7.04
2019-04-14T05:06:28.918Z,7.08
2019-04-14T05:11:36.232Z,7.10
2019-04-14T05:16:38.315Z,7.08
2019-04-14T05:21:40.944Z,7.22
2019-04-14T05:26:43.840Z,7.32
2019-04-14T05:31:46.830Z,7.37
2019-04-14T05:36:49.998Z,7.36
2019-04-14T05:42:00.587Z,7.39
2019-04-14T05:46:56.176Z,7.47
2019-04-14T05:51:59.168Z,7.45
2019-04-14T05:57:02.317Z,7.45
2019-04-14T06:02:04.880Z,7.47
2019-04-14T06:07:07.086Z,7.52
2019-04-14T06:12:09.171Z,7.54
2019-04-14T06:17:11.304Z,7.56
2019-04-14T06:22:14.651Z,7.63
2019-04-14T06:27:16.732Z,7.70
2019-04-14T06:32:30.463Z,7.75
2019-04-14T06:37:37.450Z,7.85
2019-04-14T06:42:39.615Z,7.92
2019-04-14T06:47:41.789Z,8.03
2019-04-14T06:52:46.565Z,8.02
2019-04-14T06:57:48.708Z,8.12
2019-04-14T07:02:53.249Z,8.17
2019-04-14T07:07:57.237Z,8.33
2019-04-14T07:12:59.384Z,8.37
2019-04-14T07:18:02.207Z,8.51
2019-04-14T07:23:04.473Z,8.42
2019-04-14T07:28:08.743Z,8.38
2019-04-14T07:33:29.123Z,8.35
2019-04-14T07:38:35.650Z,8.48
2019-04-14T07:43:45.619Z,8.44
2019-04-14T07:48:54.404Z,8.41
2019-04-14T07:54:02.990Z,8.38
2019-04-14T07:59:28.694Z,8.36
2019-04-14T08:04:36.229Z,8.43
2019-04-14T08:09:38.301Z,8.39
2019-04-14T08:14:40.401Z,8.35
2019-04-14T08:19:42.483Z,8.28
2019-04-14T08:24:44.583Z,8.24
2019-04-14T08:29:46.672Z,8.32
2019-04-14T08:34:48.804Z,8.26
2019-04-14T08:39:50.865Z,8.34
2019-04-14T08:44:53.300Z,8.39
2019-04-14T08:49:59.046Z,8.43
2019-04-14T08:55:06.935Z,8.54
2019-04-14T09:00:25.866Z,8.52
2019-04-14T09:05:56.684Z,8.46
2019-04-14T09:11:00.803Z,8.56
2019-04-14T09:16:02.890Z,8.46
2019-04-14T09:21:05.042Z,8.37
2019-04-14T09:26:07.260Z,8.31
2019-04-14T09:31:09.354Z,8.40
2019-04-14T09:36:11.473Z,8.43
2019-04-14T09:41:13.566Z,8.45
2019-04-14T09:46:17.775Z,8.40
2019-04-14T09:51:19.923Z,8.39
2019-04-14T09:56:22.063Z,8.38
2019-04-14T10:01:24.526Z,8.41
2019-04-14T10:06:26.566Z,8.52
2019-04-14T10:11:28.657Z,8.65
2019-04-14T10:16:32.397Z,8.61
2019-04-14T10:21:34.464Z,8.62
2019-04-14T10:26:36.643Z,8.65
2019-04-14T10:31:38.721Z,8.61
2019-04-14T10:36:40.784Z,8.65
2019-04-14T10:41:43.034Z,8.64
2019-04-14T10:46:45.184Z,8.64
2019-04-14T10:51:50.397Z,8.68
2019-04-14T10:56:52.622Z,8.66
2019-04-14T11:01:54.811Z,8.69
2019-04-14T11:07:19.283Z,8.65
2019-04-14T11:12:21.359Z,8.52
2019-04-14T11:17:23.434Z,8.48
2019-04-14T11:22:27.772Z,8.55
2019-04-14T11:27:29.920Z,8.67
2019-04-14T11:32:51.637Z,8.52
2019-04-14T11:38:09.756Z,8.60
2019-04-14T11:43:11.850Z,8.58
2019-04-14T11:48:14.005Z,8.42
2019-04-14T11:53:16.113Z,8.43
2019-04-14T11:58:18.213Z,8.42
2019-04-14T12:03:26.499Z,8.32
2019-04-14T12:08:51.026Z,8.47
2019-04-14T12:13:53.145Z,8.59
2019-04-14T12:18:55.245Z,8.60
2019-04-14T12:23:57.316Z,8.56
2019-04-14T12:29:02.812Z,8.53
2019-04-14T12:34:03.650Z,8.54
2019-04-14T12:39:14.117Z,8.58
2019-04-14T12:44:35.461Z,8.68
2019-04-14T12:49:39.990Z,8.65
2019-04-14T12:54:42.379Z,8.75
2019-04-14T12:59:44.615Z,8.87
2019-04-14T13:04:46.731Z,8.90
2019-04-14T13:09:48.821Z,9.04
2019-04-14T13:14:50.876Z,9.05
2019-04-14T13:19:52.971Z,9.05
2019-04-14T13:24:55.183Z,9.04
2019-04-14T13:29:57.490Z,9.08
2019-04-14T13:34:59.707Z,9.05
2019-04-14T13:40:01.924Z,9.17
2019-04-14T13:45:05.964Z,9.23
2019-04-14T13:50:09.651Z,9.29
2019-04-14T13:55:12.428Z,9.22
2019-04-14T14:00:15.393Z,9.18
2019-04-14T14:05:17.547Z,9.15
2019-04-14T14:10:19.674Z,9.23
2019-04-14T14:15:41.705Z,9.23
2019-04-14T14:21:02.310Z,9.28
2019-04-14T14:26:08.083Z,9.37
2019-04-14T14:31:10.512Z,9.47
2019-04-14T14:36:12.864Z,9.59
2019-04-14T14:41:16.278Z,9.66
2019-04-14T14:46:29.138Z,9.61
2019-04-14T14:51:53.448Z,9.63
2019-04-14T14:56:56.466Z,9.67
2019-04-14T15:02:00.847Z,9.70
2019-04-14T15:07:03.638Z,9.67
2019-04-14T15:12:08.218Z,9.69
2019-04-14T15:17:10.277Z,9.74
2019-04-14T15:22:12.781Z,9.81
2019-04-14T15:27:15.819Z,9.93
2019-04-14T15:32:17.870Z,9.93
2019-04-14T15:37:19.919Z,10.01
2019-04-14T15:42:21.980Z,10.09
2019-04-14T15:47:24.125Z,10.17
2019-04-14T15:52:26.200Z,10.24
2019-04-14T15:57:36.163Z,10.21
2019-04-14T16:02:43.730Z,10.14
2019-04-14T16:07:52.480Z,10.24
2019-04-14T16:13:03.515Z,10.37
2019-04-14T16:18:23.920Z,10.47
2019-04-14T16:23:26.140Z,10.45
2019-04-14T16:28:53.758Z,10.50
2019-04-14T16:34:11.507Z,10.54
2019-04-14T16:39:13.591Z,10.66
2019-04-14T16:44:15.684Z,10.61
2019-04-14T16:49:17.795Z,10.66
2019-04-14T16:54:35.415Z,10.64
2019-04-14T16:59:37.494Z,10.65
2019-04-14T17:04:39.627Z,10.66
2019-04-14T17:09:41.783Z,10.68
2019-04-14T17:15:06.458Z,10.70
2019-04-14T17:20:20.803Z,10.69
2019-04-14T17:25:35.348Z,10.72
2019-04-14T17:30:46.255Z,10.72
2019-04-14T17:35:57.351Z,10.71
2019-04-14T17:41:20.514Z,10.66
2019-04-14T17:46:54.295Z,10.66
2019-04-14T17:52:30.851Z,10.61
2019-04-14T17:57:51.194Z,10.54
2019-04-14T18:03:05.962Z,10.46
2019-04-14T18:08:25.650Z,10.42
2019-04-14T18:13:36.244Z,10.36
2019-04-14T18:19:03.510Z,10.32
2019-04-14T18:24:05.613Z,10.28
2019-04-14T18:29:45.191Z,10.33
2019-04-14T18:35:11.173Z,10.35
2019-04-14T18:40:17.377Z,10.37
2019-04-14T18:45:32.919Z,10.42
2019-04-14T18:50:44.407Z,10.45
2019-04-14T18:55:52.217Z,10.46
2019-04-14T19:01:07.429Z,10.45
2019-04-14T19:06:09.508Z,10.42
2019-04-14T19:11:37.674Z,10.47
2019-04-14T19:16:43.211Z,10.47
2019-04-14T19:21:45.400Z,10.48
2019-04-14T19:26:47.454Z,10.49
2019-04-14T19:31:49.546Z,10.53
2019-04-14T19:36:51.662Z,10.61
2019-04-14T19:41:53.765Z,10.64
2019-04-14T19:46:55.917Z,10.70
2019-04-14T19:52:00.408Z,10.75
2019-04-14T19:57:02.560Z,10.77
2019-04-14T20:02:04.777Z,10.73
2019-04-14T20:07:06.908Z,10.69
2019-04-14T20:12:09.906Z,10.65
2019-04-14T20:17:40.609Z,10.68
2019-04-14T20:22:51.681Z,10.71
2019-04-14T20:28:06.984Z,10.66
2019-04-14T20:33:09.092Z,10.68
2019-04-14T20:38:11.138Z,10.67
2019-04-14T20:43:13.290Z,10.67
2019-04-14T20:48:15.469Z,10.65
2019-04-14T20:53:20.185Z,10.70
2019-04-14T20:58:22.340Z,10.67
2019-04-14T21:03:45.769Z,10.68
2019-04-14T21:09:06.470Z,10.75
2019-04-14T21:14:39.848Z,10.73
2019-04-14T21:20:10.601Z,10.72
2019-04-14T21:25:24.689Z,10.71
2019-04-14T21:30:42.555Z,10.74
2019-04-14T21:36:02.689Z,10.81
2019-04-14T21:41:10.603Z,10.83
2019-04-14T21:46:12.743Z,10.78
2019-04-14T21:51:14.884Z,10.72
2019-04-14T21:56:17.358Z,10.82
2019-04-14T22:01:50.428Z,10.78
2019-04-14T22:06:54.427Z,10.80
2019-04-14T22:11:56.924Z,10.82
2019-04-14T22:16:59.194Z,10.82
2019-04-14T22:22:01.350Z,10.77
2019-04-14T22:27:03.643Z,10.84
2019-04-14T22:32:05.819Z,10.89
2019-04-14T22:37:07.964Z,10.92
2019-04-14T22:42:10.054Z,10.91
2019-04-14T22:47:12.134Z,10.93
2019-04-14T22:52:14.266Z,10.95
2019-04-14T22:57:16.516Z,10.95
2019-04-14T23:02:31.225Z,10.92
2019-04-14T23:07:52.890Z,10.93
2019-04-14T23:13:17.354Z,10.89
2019-04-14T23:18:44.924Z,10.89
2019-04-14T23:23:53.461Z,10.91
2019-04-14T23:28:55.545Z,10.86
2019-04-14T23:34:00.431Z,10.81
2019-04-14T23:39:06.710Z,10.83
2019-04-14T23:44:08.776Z,10.81
2019-04-14T23:49:11.030Z,10.73
2019-04-14T23:54:13.179Z,10.72
2019-04-14T23:59:15.325Z,10.70
